Terminal Aerodrome Forecast
Issued by NWS St Louis, MO

Home | Current Version | Previous Version | Graphics & Text | Print | Product List | Glossary On
Versions: 1 2 3 4 5 6 7 8 9 10 11 12 13 14 15 16 17 18 19 20 21 22 23 24 25 26 27 28 29 30
000
FTUS43 KLSX 012300
TAFSTL
TAF
KSTL 012335Z 0200/0306 17012KT P6SM VCSH SCT060 BKN250
      TEMPO 0201/0203 27012G20KT 1SM +TSRA OVC030CB
     FM020500 17007KT 5SM -SHRA VCTS OVC035CB
     FM021200 14007KT P6SM BKN040 OVC080
     FM022100 11010KT 5SM -SHRA VCTS BKN040CB=

USA.gov is the U.S. government's official web portal to all federal, state and local government web resources and services.